sensor_id;sensor_type;location;lat;lon;timestamp;pressure;altitude;pressure_sealevel;temperature;humidity
60170;BME280;46042;49.444;6.862;2023-08-31T00:01:01;98118.53;;;10.63;100.00
60170;BME280;46042;49.444;6.862;2023-08-31T00:03:28;98125.34;;;10.66;100.00
60170;BME280;46042;49.444;6.862;2023-08-31T00:05:55;98129.91;;;10.64;100.00
60170;BME280;46042;49.444;6.862;2023-08-31T00:08:23;98122.31;;;10.59;100.00
60170;BME280;46042;49.444;6.862;2023-08-31T00:10:57;98122.69;;;10.55;100.00
60170;BME280;46042;49.444;6.862;2023-08-31T00:13:24;98133.09;;;10.56;100.00
60170;BME280;46042;49.444;6.862;2023-08-31T00:15:53;98139.78;;;10.49;100.00
60170;BME280;46042;49.444;6.862;2023-08-31T00:18:20;98130.69;;;10.53;100.00
60170;BME280;46042;49.444;6.862;2023-08-31T00:20:47;98131.75;;;10.50;100.00
60170;BME280;46042;49.444;6.862;2023-08-31T00:23:14;98126.72;;;10.47;100.00
60170;BME280;46042;49.444;6.862;2023-08-31T00:25:40;98128.41;;;10.48;100.00
60170;BME280;46042;49.444;6.862;2023-08-31T00:28:10;98132.13;;;10.46;100.00
60170;BME280;46042;49.444;6.862;2023-08-31T00:30:36;98123.34;;;10.45;100.00
60170;BME280;46042;49.444;6.862;2023-08-31T00:33:03;98122.75;;;10.42;100.00
60170;BME280;46042;49.444;6.862;2023-08-31T00:35:33;98128.00;;;10.42;100.00
60170;BME280;46042;49.444;6.862;2023-08-31T00:37:59;98132.50;;;10.39;100.00
60170;BME280;46042;49.444;6.862;2023-08-31T00:40:27;98126.03;;;10.32;100.00
60170;BME280;46042;49.444;6.862;2023-08-31T00:42:54;98135.72;;;10.32;100.00
60170;BME280;46042;49.444;6.862;2023-08-31T00:45:21;98132.34;;;10.30;100.00
60170;BME280;46042;49.444;6.862;2023-08-31T00:47:49;98129.00;;;10.28;100.00
60170;BME280;46042;49.444;6.862;2023-08-31T00:50:16;98136.16;;;10.25;100.00
60170;BME280;46042;49.444;6.862;2023-08-31T00:52:43;98135.53;;;10.22;100.00
60170;BME280;46042;49.444;6.862;2023-08-31T00:55:14;98141.03;;;10.19;100.00
60170;BME280;46042;49.444;6.862;2023-08-31T00:57:44;98146.41;;;10.17;100.00
60170;BME280;46042;49.444;6.862;2023-08-31T01:00:11;98144.00;;;10.14;100.00
60170;BME280;46042;49.444;6.862;2023-08-31T01:02:47;98143.16;;;10.14;100.00
60170;BME280;46042;49.444;6.862;2023-08-31T01:05:29;98146.94;;;10.09;100.00
60170;BME280;46042;49.444;6.862;2023-08-31T01:08:31;98154.84;;;10.09;100.00
60170;BME280;46042;49.444;6.862;2023-08-31T01:11:21;98153.28;;;10.07;100.00
60170;BME280;46042;49.444;6.862;2023-08-31T01:13:54;98152.44;;;10.06;100.00
60170;BME280;46042;49.444;6.862;2023-08-31T01:16:25;98146.03;;;9.98;100.00
60170;BME280;46042;49.444;6.862;2023-08-31T01:18:53;98150.25;;;10.00;100.00
60170;BME280;46042;49.444;6.862;2023-08-31T01:21:27;98151.22;;;9.99;100.00
60170;BME280;46042;49.444;6.862;2023-08-31T01:23:57;98152.16;;;9.98;100.00
60170;BME280;46042;49.444;6.862;2023-08-31T01:26:25;98155.75;;;9.97;100.00
60170;BME280;46042;49.444;6.862;2023-08-31T01:28:52;98147.00;;;9.96;100.00
60170;BME280;46042;49.444;6.862;2023-08-31T01:31:19;98150.69;;;9.94;100.00
60170;BME280;46042;49.444;6.862;2023-08-31T01:33:47;98148.28;;;9.91;100.00
60170;BME280;46042;49.444;6.862;2023-08-31T01:36:21;98149.22;;;9.90;100.00
60170;BME280;46042;49.444;6.862;2023-08-31T01:38:55;98152.06;;;9.87;100.00
60170;BME280;46042;49.444;6.862;2023-08-31T01:41:26;98158.50;;;9.82;100.00
60170;BME280;46042;49.444;6.862;2023-08-31T01:43:55;98150.84;;;9.79;100.00
60170;BME280;46042;49.444;6.862;2023-08-31T01:46:22;98154.53;;;9.77;100.00
60170;BME280;46042;49.444;6.862;2023-08-31T01:48:49;98166.94;;;9.75;100.00
60170;BME280;46042;49.444;6.862;2023-08-31T01:51:16;98157.59;;;9.71;100.00
60170;BME280;46042;49.444;6.862;2023-08-31T01:53:43;98164.00;;;9.66;100.00
60170;BME280;46042;49.444;6.862;2023-08-31T01:56:11;98175.47;;;9.65;100.00
60170;BME280;46042;49.444;6.862;2023-08-31T01:58:38;98165.28;;;9.61;100.00
60170;BME280;46042;49.444;6.862;2023-08-31T02:01:04;98168.09;;;9.58;100.00
60170;BME280;46042;49.444;6.862;2023-08-31T02:03:31;98176.34;;;9.53;100.00
60170;BME280;46042;49.444;6.862;2023-08-31T02:05:58;98176.53;;;9.50;100.00
60170;BME280;46042;49.444;6.862;2023-08-31T02:08:24;98173.28;;;9.46;100.00
60170;BME280;46042;49.444;6.862;2023-08-31T02:10:51;98175.06;;;9.46;100.00
60170;BME280;46042;49.444;6.862;2023-08-31T02:13:20;98178.63;;;9.45;100.00
60170;BME280;46042;49.444;6.862;2023-08-31T02:15:46;98178.00;;;9.41;100.00
60170;BME280;46042;49.444;6.862;2023-08-31T02:18:17;98169.59;;;9.36;100.00
60170;BME280;46042;49.444;6.862;2023-08-31T02:20:44;98174.13;;;9.34;100.00
60170;BME280;46042;49.444;6.862;2023-08-31T02:23:10;98181.06;;;9.35;100.00
60170;BME280;46042;49.444;6.862;2023-08-31T02:25:38;98181.28;;;9.32;100.00
60170;BME280;46042;49.444;6.862;2023-08-31T02:28:05;98186.44;;;9.33;100.00
60170;BME280;46042;49.444;6.862;2023-08-31T02:30:32;98195.44;;;9.29;100.00
60170;BME280;46042;49.444;6.862;2023-08-31T02:32:59;98194.00;;;9.25;100.00
60170;BME280;46042;49.444;6.862;2023-08-31T02:35:25;98194.28;;;9.20;100.00
60170;BME280;46042;49.444;6.862;2023-08-31T02:37:52;98191.66;;;9.20;100.00
60170;BME280;46042;49.444;6.862;2023-08-31T02:40:19;98200.50;;;9.19;100.00
60170;BME280;46042;49.444;6.862;2023-08-31T02:42:51;98205.09;;;9.16;100.00
60170;BME280;46042;49.444;6.862;2023-08-31T02:45:18;98202.59;;;9.14;100.00
60170;BME280;46042;49.444;6.862;2023-08-31T02:47:45;98199.13;;;9.14;100.00
60170;BME280;46042;49.444;6.862;2023-08-31T02:50:12;98196.41;;;9.15;100.00
60170;BME280;46042;49.444;6.862;2023-08-31T02:52:40;98204.38;;;9.14;100.00
60170;BME280;46042;49.444;6.862;2023-08-31T02:55:07;98196.59;;;9.12;100.00
60170;BME280;46042;49.444;6.862;2023-08-31T02:57:33;98206.69;;;9.05;100.00
60170;BME280;46042;49.444;6.862;2023-08-31T03:00:00;98206.69;;;9.05;100.00
60170;BME280;46042;49.444;6.862;2023-08-31T03:02:27;98193.63;;;9.04;100.00
60170;BME280;46042;49.444;6.862;2023-08-31T03:04:55;98195.53;;;9.02;100.00
60170;BME280;46042;49.444;6.862;2023-08-31T03:07:22;98184.19;;;9.01;100.00
60170;BME280;46042;49.444;6.862;2023-08-31T03:09:49;98186.81;;;9.01;100.00
60170;BME280;46042;49.444;6.862;2023-08-31T03:12:18;98183.25;;;9.02;100.00
60170;BME280;46042;49.444;6.862;2023-08-31T03:14:45;98185.03;;;9.02;100.00
60170;BME280;46042;49.444;6.862;2023-08-31T03:17:12;98199.09;;;9.01;100.00
60170;BME280;46042;49.444;6.862;2023-08-31T03:19:39;98200.47;;;8.93;100.00
60170;BME280;46042;49.444;6.862;2023-08-31T03:22:05;98203.19;;;8.92;100.00
60170;BME280;46042;49.444;6.862;2023-08-31T03:24:33;98193.72;;;8.89;100.00
60170;BME280;46042;49.444;6.862;2023-08-31T03:26:59;98196.75;;;8.83;100.00
60170;BME280;46042;49.444;6.862;2023-08-31T03:29:26;98205.56;;;8.82;100.00
60170;BME280;46042;49.444;6.862;2023-08-31T03:31:55;98209.88;;;8.83;100.00
60170;BME280;46042;49.444;6.862;2023-08-31T03:34:22;98217.03;;;8.81;100.00
60170;BME280;46042;49.444;6.862;2023-08-31T03:36:48;98207.34;;;8.81;100.00
60170;BME280;46042;49.444;6.862;2023-08-31T03:39:16;98203.53;;;8.73;100.00
60170;BME280;46042;49.444;6.862;2023-08-31T03:41:43;98207.31;;;8.68;100.00
60170;BME280;46042;49.444;6.862;2023-08-31T03:44:10;98204.06;;;8.65;100.00
60170;BME280;46042;49.444;6.862;2023-08-31T03:46:36;98200.69;;;8.63;100.00
60170;BME280;46042;49.444;6.862;2023-08-31T03:49:03;98197.31;;;8.61;100.00
60170;BME280;46042;49.444;6.862;2023-08-31T03:51:30;98199.00;;;8.62;100.00
60170;BME280;46042;49.444;6.862;2023-08-31T03:53:56;98200.16;;;8.58;100.00
60170;BME280;46042;49.444;6.862;2023-08-31T03:56:23;98205.41;;;8.58;100.00
60170;BME280;46042;49.444;6.862;2023-08-31T03:58:50;98200.25;;;8.56;100.00
60170;BME280;46042;49.444;6.862;2023-08-31T04:01:16;98203.91;;;8.53;100.00
60170;BME280;46042;49.444;6.862;2023-08-31T04:03:44;98212.06;;;8.49;100.00
60170;BME280;46042;49.444;6.862;2023-08-31T04:06:11;98207.81;;;8.46;100.00
60170;BME280;46042;49.444;6.862;2023-08-31T04:08:38;98213.94;;;8.47;100.00
60170;BME280;46042;49.444;6.862;2023-08-31T04:11:04;98215.66;;;8.33;100.00
60170;BME280;46042;49.444;6.862;2023-08-31T04:13:31;98216.38;;;8.35;100.00
60170;BME280;46042;49.444;6.862;2023-08-31T04:15:58;98221.63;;;8.35;100.00
60170;BME280;46042;49.444;6.862;2023-08-31T04:18:24;98219.00;;;8.35;100.00
60170;BME280;46042;49.444;6.862;2023-08-31T04:20:53;98216.72;;;8.31;100.00
60170;BME280;46042;49.444;6.862;2023-08-31T04:23:20;98228.03;;;8.31;100.00
60170;BME280;46042;49.444;6.862;2023-08-31T04:25:47;98228.88;;;8.32;100.00
60170;BME280;46042;49.444;6.862;2023-08-31T04:28:14;98228.03;;;8.31;100.00
60170;BME280;46042;49.444;6.862;2023-08-31T04:30:41;98236.84;;;8.30;100.00
60170;BME280;46042;49.444;6.862;2023-08-31T04:33:08;98236.84;;;8.30;100.00
60170;BME280;46042;49.444;6.862;2023-08-31T04:35:35;98240.22;;;8.32;100.00
60170;BME280;46042;49.444;6.862;2023-08-31T04:38:02;98243.88;;;8.30;100.00
60170;BME280;46042;49.444;6.862;2023-08-31T04:40:30;98255.13;;;8.32;100.00
60170;BME280;46042;49.444;6.862;2023-08-31T04:42:57;98256.06;;;8.31;100.00
60170;BME280;46042;49.444;6.862;2023-08-31T04:45:24;98252.59;;;8.30;100.00
60170;BME280;46042;49.444;6.862;2023-08-31T04:47:51;98249.97;;;8.30;100.00
60170;BME280;46042;49.444;6.862;2023-08-31T04:50:19;98252.69;;;8.29;100.00
60170;BME280;46042;49.444;6.862;2023-08-31T04:52:46;98252.69;;;8.29;100.00
60170;BME280;46042;49.444;6.862;2023-08-31T04:55:13;98258.03;;;8.27;100.00
60170;BME280;46042;49.444;6.862;2023-08-31T04:57:40;98260.75;;;8.25;100.00
60170;BME280;46042;49.444;6.862;2023-08-31T05:00:07;98271.03;;;8.29;100.00
60170;BME280;46042;49.444;6.862;2023-08-31T05:02:35;98270.97;;;8.30;100.00
60170;BME280;46042;49.444;6.862;2023-08-31T05:05:03;98277.06;;;8.31;100.00
60170;BME280;46042;49.444;6.862;2023-08-31T05:07:30;98270.97;;;8.30;100.00
60170;BME280;46042;49.444;6.862;2023-08-31T05:09:56;98274.44;;;8.31;100.00
60170;BME280;46042;49.444;6.862;2023-08-31T05:12:23;98274.25;;;8.34;100.00
60170;BME280;46042;49.444;6.862;2023-08-31T05:14:50;98271.91;;;8.29;100.00
60170;BME280;46042;49.444;6.862;2023-08-31T05:17:16;98270.22;;;8.28;100.00
60170;BME280;46042;49.444;6.862;2023-08-31T05:19:43;98280.72;;;8.28;100.00
60170;BME280;46042;49.444;6.862;2023-08-31T05:22:10;98286.72;;;8.30;100.00
60170;BME280;46042;49.444;6.862;2023-08-31T05:24:36;98287.25;;;8.35;100.00
60170;BME280;46042;49.444;6.862;2023-08-31T05:27:03;98295.31;;;8.32;100.00
60170;BME280;46042;49.444;6.862;2023-08-31T05:29:30;98298.97;;;8.30;100.00
60170;BME280;46042;49.444;6.862;2023-08-31T05:31:57;98299.09;;;8.28;100.00
60170;BME280;46042;49.444;6.862;2023-08-31T05:34:24;98300.50;;;8.34;100.00
60170;BME280;46042;49.444;6.862;2023-08-31T05:36:51;98298.22;;;8.42;100.00
60170;BME280;46042;49.444;6.862;2023-08-31T05:39:18;98301.25;;;8.50;100.00
60170;BME280;46042;49.444;6.862;2023-08-31T05:41:45;98295.19;;;8.63;100.00
60170;BME280;46042;49.444;6.862;2023-08-31T05:44:12;98297.16;;;8.74;100.00
60170;BME280;46042;49.444;6.862;2023-08-31T05:46:38;98304.16;;;8.88;100.00
60170;BME280;46042;49.444;6.862;2023-08-31T05:49:07;98302.50;;;9.00;100.00
60170;BME280;46042;49.444;6.862;2023-08-31T05:51:35;98305.16;;;9.13;100.00
60170;BME280;46042;49.444;6.862;2023-08-31T05:54:01;98304.47;;;9.23;100.00
60170;BME280;46042;49.444;6.862;2023-08-31T05:56:29;98309.97;;;9.33;100.00
60170;BME280;46042;49.444;6.862;2023-08-31T05:58:56;98316.50;;;9.41;100.00
60170;BME280;46042;49.444;6.862;2023-08-31T06:01:23;98318.50;;;9.50;100.00
60170;BME280;46042;49.444;6.862;2023-08-31T06:03:50;98311.47;;;9.63;100.00
60170;BME280;46042;49.444;6.862;2023-08-31T06:06:16;98323.91;;;9.74;100.00
60170;BME280;46042;49.444;6.862;2023-08-31T06:08:43;98318.47;;;9.90;100.00
60170;BME280;46042;49.444;6.862;2023-08-31T06:11:10;98323.63;;;10.05;100.00
60170;BME280;46042;49.444;6.862;2023-08-31T06:13:37;98335.59;;;10.22;100.00
60170;BME280;46042;49.444;6.862;2023-08-31T06:16:04;98327.50;;;10.38;100.00
60170;BME280;46042;49.444;6.862;2023-08-31T06:18:31;98331.06;;;10.50;100.00
60170;BME280;46042;49.444;6.862;2023-08-31T06:20:58;98326.22;;;10.57;100.00
60170;BME280;46042;49.444;6.862;2023-08-31T06:23:24;98336.44;;;10.61;100.00
60170;BME280;46042;49.444;6.862;2023-08-31T06:25:51;98343.66;;;10.71;100.00
60170;BME280;46042;49.444;6.862;2023-08-31T06:28:18;98340.19;;;10.70;100.00
60170;BME280;46042;49.444;6.862;2023-08-31T06:30:44;98333.53;;;10.77;100.00
60170;BME280;46042;49.444;6.862;2023-08-31T06:33:14;98333.44;;;10.79;100.00
60170;BME280;46042;49.444;6.862;2023-08-31T06:35:41;98328.22;;;10.90;100.00
60170;BME280;46042;49.444;6.862;2023-08-31T06:38:08;98340.56;;;11.14;100.00
60170;BME280;46042;49.444;6.862;2023-08-31T06:40:35;98346.72;;;11.26;100.00
60170;BME280;46042;49.444;6.862;2023-08-31T06:43:01;98344.41;;;11.46;100.00
60170;BME280;46042;49.444;6.862;2023-08-31T06:45:29;98346.53;;;11.65;100.00
60170;BME280;46042;49.444;6.862;2023-08-31T06:47:56;98340.81;;;11.83;100.00
60170;BME280;46042;49.444;6.862;2023-08-31T06:50:23;98342.84;;;11.79;100.00
60170;BME280;46042;49.444;6.862;2023-08-31T06:52:50;98340.88;;;12.05;100.00
60170;BME280;46042;49.444;6.862;2023-08-31T06:55:16;98346.28;;;12.15;100.00
60170;BME280;46042;49.444;6.862;2023-08-31T06:57:43;98352.25;;;12.06;100.00
60170;BME280;46042;49.444;6.862;2023-08-31T07:00:11;98353.72;;;12.21;100.00
60170;BME280;46042;49.444;6.862;2023-08-31T07:02:40;98349.31;;;12.33;100.00
60170;BME280;46042;49.444;6.862;2023-08-31T07:05:10;98353.38;;;12.37;100.00
60170;BME280;46042;49.444;6.862;2023-08-31T07:07:37;98361.75;;;12.31;100.00
60170;BME280;46042;49.444;6.862;2023-08-31T07:10:04;98357.81;;;12.60;100.00
60170;BME280;46042;49.444;6.862;2023-08-31T07:12:32;98360.78;;;12.78;100.00
60170;BME280;46042;49.444;6.862;2023-08-31T07:14:59;98355.50;;;12.89;100.00
60170;BME280;46042;49.444;6.862;2023-08-31T07:17:25;98360.53;;;12.92;100.00
60170;BME280;46042;49.444;6.862;2023-08-31T07:19:52;98363.28;;;12.91;100.00
60170;BME280;46042;49.444;6.862;2023-08-31T07:22:19;98362.38;;;12.69;100.00
60170;BME280;46042;49.444;6.862;2023-08-31T07:24:46;98366.56;;;12.72;100.00
60170;BME280;46042;49.444;6.862;2023-08-31T07:27:12;98373.69;;;13.15;100.00
60170;BME280;46042;49.444;6.862;2023-08-31T07:29:41;98383.31;;;13.16;100.00
60170;BME280;46042;49.444;6.862;2023-08-31T07:32:08;98385.38;;;13.13;100.00
60170;BME280;46042;49.444;6.862;2023-08-31T07:34:36;98383.25;;;13.72;100.00
60170;BME280;46042;49.444;6.862;2023-08-31T07:37:03;98386.16;;;14.11;100.00
60170;BME280;46042;49.444;6.862;2023-08-31T07:39:30;98379.50;;;14.38;100.00
60170;BME280;46042;49.444;6.862;2023-08-31T07:41:57;98384.34;;;14.64;100.00
60170;BME280;46042;49.444;6.862;2023-08-31T07:44:25;98386.31;;;14.10;100.00
60170;BME280;46042;49.444;6.862;2023-08-31T07:46:52;98390.09;;;14.17;100.00
60170;BME280;46042;49.444;6.862;2023-08-31T07:49:19;98384.31;;;14.23;100.00
60170;BME280;46042;49.444;6.862;2023-08-31T07:51:45;98383.44;;;14.44;100.00
60170;BME280;46042;49.444;6.862;2023-08-31T07:54:21;98391.31;;;14.55;100.00
60170;BME280;46042;49.444;6.862;2023-08-31T07:56:48;98392.13;;;14.56;100.00
60170;BME280;46042;49.444;6.862;2023-08-31T07:59:16;98397.09;;;15.11;100.00
60170;BME280;46042;49.444;6.862;2023-08-31T08:01:43;98404.13;;;14.81;100.00
60170;BME280;46042;49.444;6.862;2023-08-31T08:04:13;98417.13;;;14.94;100.00
60170;BME280;46042;49.444;6.862;2023-08-31T08:06:40;98412.16;;;15.11;100.00
60170;BME280;46042;49.444;6.862;2023-08-31T08:09:06;98409.69;;;15.29;100.00
60170;BME280;46042;49.444;6.862;2023-08-31T08:11:34;98414.72;;;15.71;100.00
60170;BME280;46042;49.444;6.862;2023-08-31T08:14:01;98413.63;;;16.13;100.00
60170;BME280;46042;49.444;6.862;2023-08-31T08:16:29;98421.84;;;16.30;100.00
60170;BME280;46042;49.444;6.862;2023-08-31T08:18:56;98421.94;;;16.48;91.55
60170;BME280;46042;49.444;6.862;2023-08-31T08:21:23;98410.84;;;16.62;100.00
60170;BME280;46042;49.444;6.862;2023-08-31T08:23:50;98411.75;;;17.09;100.00
60170;BME280;46042;49.444;6.862;2023-08-31T08:26:17;98411.94;;;17.08;100.00
60170;BME280;46042;49.444;6.862;2023-08-31T08:28:44;98407.53;;;17.16;90.69
60170;BME280;46042;49.444;6.862;2023-08-31T08:31:12;98417.06;;;17.37;97.31
60170;BME280;46042;49.444;6.862;2023-08-31T08:33:39;98415.63;;;17.61;97.03
60170;BME280;46042;49.444;6.862;2023-08-31T08:36:06;98417.44;;;17.78;93.19
60170;BME280;46042;49.444;6.862;2023-08-31T08:38:33;98414.19;;;17.85;89.61
60170;BME280;46042;49.444;6.862;2023-08-31T08:41:04;98414.84;;;18.05;87.28
60170;BME280;46042;49.444;6.862;2023-08-31T08:43:33;98419.63;;;18.19;96.46
60170;BME280;46042;49.444;6.862;2023-08-31T08:46:10;98421.69;;;17.53;90.66
60170;BME280;46042;49.444;6.862;2023-08-31T08:48:37;98425.28;;;17.80;88.05
60170;BME280;46042;49.444;6.862;2023-08-31T08:51:06;98422.19;;;17.85;92.08
60170;BME280;46042;49.444;6.862;2023-08-31T08:53:34;98422.28;;;17.29;83.93
60170;BME280;46042;49.444;6.862;2023-08-31T08:56:01;98423.22;;;16.34;83.87
60170;BME280;46042;49.444;6.862;2023-08-31T08:58:27;98418.09;;;16.70;84.07
60170;BME280;46042;49.444;6.862;2023-08-31T09:00:55;98421.53;;;17.37;94.06
60170;BME280;46042;49.444;6.862;2023-08-31T09:03:23;98423.06;;;17.21;86.39
60170;BME280;46042;49.444;6.862;2023-08-31T09:05:51;98417.03;;;17.19;83.94
60170;BME280;46042;49.444;6.862;2023-08-31T09:08:27;98421.25;;;17.40;92.46
60170;BME280;46042;49.444;6.862;2023-08-31T09:10:57;98428.41;;;17.57;88.95
60170;BME280;46042;49.444;6.862;2023-08-31T09:13:29;98432.34;;;17.53;82.81
60170;BME280;46042;49.444;6.862;2023-08-31T09:15:56;98433.31;;;16.78;84.93
60170;BME280;46042;49.444;6.862;2023-08-31T09:18:29;98420.84;;;17.34;90.91
60170;BME280;46042;49.444;6.862;2023-08-31T09:20:58;98431.31;;;17.64;93.21
60170;BME280;46042;49.444;6.862;2023-08-31T09:23:25;98410.84;;;17.46;88.93
60170;BME280;46042;49.444;6.862;2023-08-31T09:25:55;98413.72;;;17.07;87.96
60170;BME280;46042;49.444;6.862;2023-08-31T09:28:24;98421.84;;;17.33;92.70
60170;BME280;46042;49.444;6.862;2023-08-31T09:31:05;98425.72;;;17.21;89.36
60170;BME280;46042;49.444;6.862;2023-08-31T09:33:34;98434.53;;;16.84;88.32
60170;BME280;46042;49.444;6.862;2023-08-31T09:36:03;98427.19;;;16.68;89.90
60170;BME280;46042;49.444;6.862;2023-08-31T09:38:31;98428.50;;;16.54;88.42
60170;BME280;46042;49.444;6.862;2023-08-31T09:41:05;98424.13;;;16.62;95.86
60170;BME280;46042;49.444;6.862;2023-08-31T09:43:34;98430.13;;;17.02;91.89
60170;BME280;46042;49.444;6.862;2023-08-31T09:46:03;98429.41;;;16.72;86.87
60170;BME280;46042;49.444;6.862;2023-08-31T09:48:31;98426.41;;;16.85;90.79
60170;BME280;46042;49.444;6.862;2023-08-31T09:50:58;98431.47;;;17.16;90.08
60170;BME280;46042;49.444;6.862;2023-08-31T09:53:29;98431.13;;;17.29;91.49
60170;BME280;46042;49.444;6.862;2023-08-31T09:55:57;98424.38;;;17.35;85.76
60170;BME280;46042;49.444;6.862;2023-08-31T09:58:24;98423.09;;;17.57;80.55
60170;BME280;46042;49.444;6.862;2023-08-31T10:00:52;98419.13;;;18.16;95.52
60170;BME280;46042;49.444;6.862;2023-08-31T10:03:20;98420.25;;;18.13;82.32
60170;BME280;46042;49.444;6.862;2023-08-31T10:05:49;98424.47;;;18.77;92.93
60170;BME280;46042;49.444;6.862;2023-08-31T10:08:17;98417.34;;;18.86;86.35
60170;BME280;46042;49.444;6.862;2023-08-31T10:10:45;98424.94;;;18.72;84.37
60170;BME280;46042;49.444;6.862;2023-08-31T10:13:13;98419.41;;;18.66;87.15
60170;BME280;46042;49.444;6.862;2023-08-31T10:15:43;98415.00;;;19.17;83.74
60170;BME280;46042;49.444;6.862;2023-08-31T10:18:12;98418.78;;;18.72;80.75
60170;BME280;46042;49.444;6.862;2023-08-31T10:20:42;98412.66;;;18.80;84.61
60170;BME280;46042;49.444;6.862;2023-08-31T10:23:11;98409.00;;;19.32;85.86
60170;BME280;46042;49.444;6.862;2023-08-31T10:28:26;98403.56;;;18.99;74.29
60170;BME280;46042;49.444;6.862;2023-08-31T10:31:06;98407.00;;;19.26;86.67
60170;BME280;46042;49.444;6.862;2023-08-31T10:33:40;98410.41;;;19.78;82.33
60170;BME280;46042;49.444;6.862;2023-08-31T10:36:16;98408.25;;;19.81;72.36
60170;BME280;46042;49.444;6.862;2023-08-31T10:38:50;98412.75;;;19.81;75.70
60170;BME280;46042;49.444;6.862;2023-08-31T10:41:33;98410.94;;;19.81;78.53
60170;BME280;46042;49.444;6.862;2023-08-31T10:44:20;98418.88;;;18.97;74.02
60170;BME280;46042;49.444;6.862;2023-08-31T10:46:49;98417.31;;;19.12;81.29
60170;BME280;46042;49.444;6.862;2023-08-31T10:49:23;98416.94;;;18.72;75.97
60170;BME280;46042;49.444;6.862;2023-08-31T10:51:57;98421.47;;;18.45;72.52
60170;BME280;46042;49.444;6.862;2023-08-31T10:54:32;98413.78;;;18.42;73.19
60170;BME280;46042;49.444;6.862;2023-08-31T10:57:03;98415.75;;;19.01;74.06
60170;BME280;46042;49.444;6.862;2023-08-31T10:59:44;98409.97;;;18.18;76.98
60170;BME280;46042;49.444;6.862;2023-08-31T11:02:35;98416.75;;;18.13;78.47
60170;BME280;46042;49.444;6.862;2023-08-31T11:07:33;98405.28;;;18.73;81.43
60170;BME280;46042;49.444;6.862;2023-08-31T11:10:09;98407.25;;;18.37;73.27
60170;BME280;46042;49.444;6.862;2023-08-31T11:12:37;98401.38;;;18.94;75.04
60170;BME280;46042;49.444;6.862;2023-08-31T11:15:04;98394.03;;;18.96;73.22
60170;BME280;46042;49.444;6.862;2023-08-31T11:17:33;98397.16;;;19.26;84.16
60170;BME280;46042;49.444;6.862;2023-08-31T11:20:00;98399.22;;;19.74;72.30
60170;BME280;46042;49.444;6.862;2023-08-31T11:22:27;98392.72;;;20.01;72.30
60170;BME280;46042;49.444;6.862;2023-08-31T11:24:56;98396.94;;;19.96;67.23
60170;BME280;46042;49.444;6.862;2023-08-31T11:27:23;98398.22;;;18.99;66.69
60170;BME280;46042;49.444;6.862;2023-08-31T11:29:49;98393.44;;;18.68;71.66
60170;BME280;46042;49.444;6.862;2023-08-31T11:32:16;98392.50;;;18.24;73.96
60170;BME280;46042;49.444;6.862;2023-08-31T11:34:44;98391.56;;;18.07;78.04
60170;BME280;46042;49.444;6.862;2023-08-31T11:37:14;98389.06;;;18.05;77.97
60170;BME280;46042;49.444;6.862;2023-08-31T11:39:52;98388.28;;;18.40;81.23
60170;BME280;46042;49.444;6.862;2023-08-31T11:42:21;98391.44;;;18.70;75.31
60170;BME280;46042;49.444;6.862;2023-08-31T11:44:49;98392.25;;;18.70;74.74
60170;BME280;46042;49.444;6.862;2023-08-31T11:47:16;98392.03;;;18.29;72.94
60170;BME280;46042;49.444;6.862;2023-08-31T11:49:44;98391.88;;;18.30;74.89
60170;BME280;46042;49.444;6.862;2023-08-31T11:52:12;98396.06;;;18.33;74.79
60170;BME280;46042;49.444;6.862;2023-08-31T11:54:41;98404.84;;;18.25;72.64
60170;BME280;46042;49.444;6.862;2023-08-31T11:57:09;98395.34;;;18.49;74.10
60170;BME280;46042;49.444;6.862;2023-08-31T11:59:37;98394.75;;;19.07;73.10
60170;BME280;46042;49.444;6.862;2023-08-31T12:02:08;98398.06;;;19.76;74.01
60170;BME280;46042;49.444;6.862;2023-08-31T12:04:45;98397.84;;;19.37;69.41
60170;BME280;46042;49.444;6.862;2023-08-31T12:07:16;98391.47;;;19.13;76.55
60170;BME280;46042;49.444;6.862;2023-08-31T12:09:44;98391.94;;;18.73;70.28
60170;BME280;46042;49.444;6.862;2023-08-31T12:12:14;98397.00;;;18.50;65.13
60170;BME280;46042;49.444;6.862;2023-08-31T12:14:43;98390.72;;;18.33;71.97
60170;BME280;46042;49.444;6.862;2023-08-31T12:17:10;98386.50;;;18.22;70.92
60170;BME280;46042;49.444;6.862;2023-08-31T12:19:40;98399.09;;;17.94;67.87
60170;BME280;46042;49.444;6.862;2023-08-31T12:22:07;98394.13;;;17.99;71.88
60170;BME280;46042;49.444;6.862;2023-08-31T12:24:40;98399.75;;;18.14;71.82
60170;BME280;46042;49.444;6.862;2023-08-31T12:27:08;98394.09;;;18.70;72.00
60170;BME280;46042;49.444;6.862;2023-08-31T12:29:35;98389.34;;;19.41;72.67
60170;BME280;46042;49.444;6.862;2023-08-31T12:32:02;98387.75;;;19.05;66.50
60170;BME280;46042;49.444;6.862;2023-08-31T12:34:29;98387.34;;;19.68;78.57
60170;BME280;46042;49.444;6.862;2023-08-31T12:37:00;98387.38;;;20.10;66.71
60170;BME280;46042;49.444;6.862;2023-08-31T12:39:29;98382.19;;;19.67;66.63
60170;BME280;46042;49.444;6.862;2023-08-31T12:41:55;98385.38;;;19.79;68.63
60170;BME280;46042;49.444;6.862;2023-08-31T12:44:43;98379.88;;;19.80;70.48
60170;BME280;46042;49.444;6.862;2023-08-31T12:47:10;98392.84;;;19.42;67.27
60170;BME280;46042;49.444;6.862;2023-08-31T12:49:36;98389.59;;;19.13;69.49
60170;BME280;46042;49.444;6.862;2023-08-31T12:52:03;98384.44;;;18.69;66.12
60170;BME280;46042;49.444;6.862;2023-08-31T12:54:30;98385.78;;;18.81;74.57
60170;BME280;46042;49.444;6.862;2023-08-31T12:56:57;98380.72;;;18.61;71.17
60170;BME280;46042;49.444;6.862;2023-08-31T12:59:24;98388.88;;;18.60;74.58
60170;BME280;46042;49.444;6.862;2023-08-31T13:01:50;98383.50;;;18.25;75.28
60170;BME280;46042;49.444;6.862;2023-08-31T13:04:17;98381.16;;;18.48;80.19
60170;BME280;46042;49.444;6.862;2023-08-31T13:06:44;98385.38;;;18.59;76.05
60170;BME280;46042;49.444;6.862;2023-08-31T13:09:11;98378.63;;;19.33;77.25